Time;durP1;ratioP1;P1;durP2;ratioP2;P2;SDS_P1;SDS_P2;PMS_P1;PMS_P2;Temp;Humidity;BMP_temperature;BMP_pressure;BME280_temperature;BME280_humidity;BME280_pressure;Samples;Min_cycle;Max_cycle;Signal;HPM_P1;HPM_P2
2021/05/31 00:01:10;;;;;;;8.63;6.10;;;;;;;;;;5055053;28;20240;-80
2021/05/31 00:03:36;;;;;;;8.23;6.47;;;;;;;;;;5054935;28;20183;-80
2021/05/31 00:06:02;;;;;;;6.90;6.20;;;;;;;;;;5054685;28;20266;-80
2021/05/31 00:08:27;;;;;;;8.00;6.33;;;;;;;;;;5054806;28;20204;-79
2021/05/31 00:10:52;;;;;;;11.73;6.50;;;;;;;;;;5055399;28;20179;-80
2021/05/31 00:13:18;;;;;;;7.30;6.60;;;;;;;;;;5054659;28;20199;-80
2021/05/31 00:15:44;;;;;;;7.63;6.17;;;;;;;;;;5054220;28;20538;-80
2021/05/31 00:18:09;;;;;;;6.53;5.93;;;;;;;;;;5054261;28;20667;-80
2021/05/31 00:20:35;;;;;;;7.77;6.50;;;;;;;;;;5054949;28;20182;-80
2021/05/31 00:23:00;;;;;;;8.17;6.17;;;;;;;;;;5054142;28;20202;-80
2021/05/31 00:25:25;;;;;;;7.40;6.07;;;;;;;;;;5054532;28;20514;-80
2021/05/31 00:27:51;;;;;;;9.70;6.10;;;;;;;;;;5054457;28;20194;-80
2021/05/31 00:30:17;;;;;;;6.97;5.93;;;;;;;;;;5054051;28;20278;-80
2021/05/31 00:32:42;;;;;;;8.77;5.93;;;;;;;;;;5053996;28;20164;-80
2021/05/31 00:35:09;;;;;;;8.17;5.73;;;;;;;;;;5054642;28;20491;-80
2021/05/31 00:37:35;;;;;;;7.47;5.77;;;;;;;;;;5054771;28;20313;-80
2021/05/31 00:40:00;;;;;;;7.00;6.37;;;;;;;;;;5054463;28;20640;-80
2021/05/31 00:42:25;;;;;;;11.07;6.70;;;;;;;;;;5053790;28;20172;-79
2021/05/31 00:44:51;;;;;;;8.73;5.90;;;;;;;;;;5054044;28;20258;-80
2021/05/31 00:47:16;;;;;;;7.23;6.30;;;;;;;;;;5053500;28;20227;-80
2021/05/31 00:49:41;;;;;;;8.77;6.27;;;;;;;;;;5054306;28;20216;-80
2021/05/31 00:52:07;;;;;;;7.07;6.37;;;;;;;;;;5053171;28;20167;-79
2021/05/31 00:54:33;;;;;;;6.43;5.83;;;;;;;;;;5054466;28;20178;-79
2021/05/31 00:56:58;;;;;;;9.63;6.97;;;;;;;;;;5053849;28;20561;-79
2021/05/31 00:59:23;;;;;;;7.70;6.37;;;;;;;;;;5054419;28;20176;-79
2021/05/31 01:01:49;;;;;;;9.20;6.73;;;;;;;;;;5053577;28;20180;-79
2021/05/31 01:04:14;;;;;;;8.53;6.70;;;;;;;;;;5054052;28;20198;-79
2021/05/31 01:06:42;;;;;;;9.23;6.53;;;;;;;;;;5054131;28;20171;-79
2021/05/31 01:09:09;;;;;;;9.77;6.57;;;;;;;;;;5053895;28;20287;-79
2021/05/31 01:11:34;;;;;;;8.70;7.23;;;;;;;;;;5054017;28;20179;-79
2021/05/31 01:14:06;;;;;;;6.90;6.20;;;;;;;;;;5053912;28;20176;-79
2021/05/31 01:16:51;;;;;;;7.00;6.40;;;;;;;;;;5054006;28;20247;-79
2021/05/31 01:19:35;;;;;;;8.67;6.80;;;;;;;;;;5053636;28;20172;-79
2021/05/31 01:22:11;;;;;;;6.80;6.20;;;;;;;;;;5053729;28;20162;-79
2021/05/31 01:24:55;;;;;;;10.17;7.03;;;;;;;;;;5052396;28;20175;-79
2021/05/31 01:27:20;;;;;;;11.03;8.17;;;;;;;;;;5053662;28;20290;-79
2021/05/31 01:30:00;;;;;;;17.77;12.80;;;;;;;;;;5053555;28;20638;-79
2021/05/31 01:32:31;;;;;;;12.07;10.87;;;;;;;;;;5053578;28;20281;-79
2021/05/31 01:34:57;;;;;;;10.73;9.63;;;;;;;;;;5053404;28;20583;-79
2021/05/31 01:37:24;;;;;;;11.60;9.77;;;;;;;;;;5053182;28;20251;-79
2021/05/31 01:39:50;;;;;;;10.27;9.27;;;;;;;;;;5054021;28;20204;-79
2021/05/31 01:42:17;;;;;;;10.53;9.43;;;;;;;;;;5053715;28;20218;-79
2021/05/31 01:44:43;;;;;;;12.93;8.87;;;;;;;;;;5053861;28;20214;-79
2021/05/31 01:47:09;;;;;;;11.03;8.87;;;;;;;;;;5053298;28;20738;-79
2021/05/31 01:49:35;;;;;;;10.13;9.30;;;;;;;;;;5053261;28;20295;-79
2021/05/31 01:52:00;;;;;;;11.87;8.83;;;;;;;;;;5053397;28;20572;-79
2021/05/31 01:54:26;;;;;;;10.63;8.83;;;;;;;;;;5053586;28;20180;-79
2021/05/31 01:56:52;;;;;;;10.43;8.27;;;;;;;;;;5053911;28;20556;-79
2021/05/31 01:59:18;;;;;;;8.23;6.80;;;;;;;;;;5053311;28;20259;-79
2021/05/31 02:01:45;;;;;;;7.80;7.07;;;;;;;;;;5053687;28;20202;-79
2021/05/31 02:04:10;;;;;;;9.33;6.80;;;;;;;;;;5057437;28;20171;-79
2021/05/31 02:06:36;;;;;;;7.67;6.67;;;;;;;;;;5057525;28;20168;-79
2021/05/31 02:09:02;;;;;;;9.33;7.03;;;;;;;;;;5055581;28;20220;-79
2021/05/31 02:11:32;;;;;;;8.03;7.23;;;;;;;;;;5056627;28;20168;-79
2021/05/31 02:14:01;;;;;;;8.27;6.33;;;;;;;;;;5057180;28;20170;-79
2021/05/31 02:16:32;;;;;;;8.10;6.73;;;;;;;;;;5056859;28;20256;-79
2021/05/31 02:18:59;;;;;;;9.33;6.90;;;;;;;;;;5057326;28;20581;-79
2021/05/31 02:21:25;;;;;;;7.13;6.43;;;;;;;;;;5056881;28;20190;-79
2021/05/31 02:23:51;;;;;;;6.90;6.30;;;;;;;;;;5056685;28;20623;-79
2021/05/31 02:26:17;;;;;;;9.37;7.37;;;;;;;;;;5057381;28;20164;-79
2021/05/31 02:28:46;;;;;;;10.17;7.37;;;;;;;;;;5056379;28;20203;-79
2021/05/31 02:31:11;;;;;;;7.90;7.20;;;;;;;;;;5056493;28;20164;-79
2021/05/31 02:33:37;;;;;;;13.50;7.07;;;;;;;;;;5056482;28;20579;-79
2021/05/31 02:36:05;;;;;;;7.83;7.07;;;;;;;;;;5056644;28;20184;-79
2021/05/31 02:38:31;;;;;;;7.03;6.33;;;;;;;;;;5056538;28;20164;-79
2021/05/31 02:40:56;;;;;;;8.33;6.40;;;;;;;;;;5056700;28;20171;-79
2021/05/31 02:43:22;;;;;;;8.10;5.90;;;;;;;;;;5056314;28;20164;-79
2021/05/31 02:45:47;;;;;;;9.93;6.47;;;;;;;;;;5056375;28;20514;-79
2021/05/31 02:48:12;;;;;;;7.73;6.67;;;;;;;;;;5056367;28;20206;-79
2021/05/31 02:50:38;;;;;;;6.97;6.27;;;;;;;;;;5056206;28;20171;-79
2021/05/31 02:53:04;;;;;;;8.27;6.27;;;;;;;;;;5056148;28;20172;-79
2021/05/31 02:55:30;;;;;;;9.87;7.10;;;;;;;;;;5056090;28;20168;-79
2021/05/31 02:57:55;;;;;;;7.10;6.40;;;;;;;;;;5056190;28;20661;-79
2021/05/31 03:00:25;;;;;;;7.70;6.87;;;;;;;;;;5056273;28;20172;-79
2021/05/31 03:02:50;;;;;;;11.47;7.80;;;;;;;;;;5055977;28;20206;-79
2021/05/31 03:05:20;;;;;;;9.77;6.97;;;;;;;;;;5055872;28;20168;-79
2021/05/31 03:07:45;;;;;;;8.93;6.80;;;;;;;;;;5055532;28;20179;-80
2021/05/31 03:10:11;;;;;;;8.73;6.67;;;;;;;;;;5055962;28;20562;-80
2021/05/31 03:12:37;;;;;;;9.27;7.00;;;;;;;;;;5055790;28;20172;-80
2021/05/31 03:15:06;;;;;;;7.63;6.83;;;;;;;;;;5054858;28;20610;-80
2021/05/31 03:17:31;;;;;;;9.50;6.60;;;;;;;;;;5055997;28;20168;-80
2021/05/31 03:19:57;;;;;;;7.00;6.30;;;;;;;;;;5056140;28;20179;-80
2021/05/31 03:22:22;;;;;;;8.57;6.70;;;;;;;;;;5056047;28;20168;-80
2021/05/31 03:24:48;;;;;;;9.33;6.57;;;;;;;;;;5055476;28;20641;-80
2021/05/31 03:27:13;;;;;;;6.97;6.37;;;;;;;;;;5055469;28;20207;-80
2021/05/31 03:29:39;;;;;;;6.90;6.30;;;;;;;;;;5055899;28;20203;-80
2021/05/31 03:32:04;;;;;;;8.70;6.40;;;;;;;;;;5055900;28;20591;-80
2021/05/31 03:34:30;;;;;;;9.63;7.10;;;;;;;;;;5056001;28;20638;-80
2021/05/31 03:36:55;;;;;;;9.13;6.70;;;;;;;;;;5054978;28;20196;-80
2021/05/31 03:39:20;;;;;;;7.13;6.43;;;;;;;;;;5054909;28;20263;-80
2021/05/31 03:41:45;;;;;;;7.73;6.23;;;;;;;;;;5055474;28;20183;-80
2021/05/31 03:44:11;;;;;;;7.23;6.50;;;;;;;;;;5055196;28;20179;-79
2021/05/31 03:46:36;;;;;;;8.17;6.53;;;;;;;;;;5054945;28;20227;-79
2021/05/31 03:49:02;;;;;;;6.70;5.93;;;;;;;;;;5055088;28;20192;-80
2021/05/31 03:51:27;;;;;;;6.93;6.20;;;;;;;;;;5055258;28;20170;-80
2021/05/31 03:53:53;;;;;;;10.17;6.20;;;;;;;;;;5053772;28;20176;-80
2021/05/31 03:56:18;;;;;;;8.57;6.70;;;;;;;;;;5054881;28;20259;-80
2021/05/31 03:58:45;;;;;;;8.13;6.40;;;;;;;;;;5055099;28;20644;-80
2021/05/31 04:01:11;;;;;;;7.97;6.50;;;;;;;;;;5055020;28;20204;-80
2021/05/31 04:03:37;;;;;;;7.43;6.67;;;;;;;;;;5054433;28;20245;-80
2021/05/31 04:11:40;;;;;;;7.67;6.10;;;;;;;;;;5054824;28;20221;-80
2021/05/31 04:14:05;;;;;;;6.13;5.57;;;;;;;;;;5054889;28;20602;-81
2021/05/31 04:16:31;;;;;;;8.30;5.68;;;;;;;;;;5054823;28;20164;-81
2021/05/31 04:18:56;;;;;;;6.40;5.43;;;;;;;;;;5054168;28;20174;-81
2021/05/31 04:21:21;;;;;;;5.50;5.10;;;;;;;;;;5054783;28;20226;-81
2021/05/31 04:23:47;;;;;;;5.90;5.30;;;;;;;;;;5054406;28;20168;-81
2021/05/31 04:26:12;;;;;;;5.53;5.03;;;;;;;;;;5053539;28;20611;-82
2021/05/31 04:28:37;;;;;;;6.10;5.25;;;;;;;;;;5054095;28;20203;-82
2021/05/31 04:31:03;;;;;;;5.45;5.05;;;;;;;;;;5054382;28;20176;-82
2021/05/31 04:33:28;;;;;;;5.20;4.80;;;;;;;;;;5053970;28;20203;-82
2021/05/31 04:35:53;;;;;;;5.70;5.20;;;;;;;;;;5053852;28;20191;-82
2021/05/31 04:38:19;;;;;;;5.70;4.90;;;;;;;;;;5054238;28;20228;-82
2021/05/31 04:40:44;;;;;;;5.10;4.65;;;;;;;;;;5054166;28;20687;-82
2021/05/31 04:43:10;;;;;;;6.90;4.90;;;;;;;;;;5054389;28;20257;-82
2021/05/31 04:45:35;;;;;;;5.45;4.88;;;;;;;;;;5053716;28;20176;-82
2021/05/31 04:48:00;;;;;;;6.20;4.90;;;;;;;;;;5053803;28;20590;-82
2021/05/31 04:50:26;;;;;;;5.43;4.78;;;;;;;;;;5054315;28;20182;-82
2021/05/31 04:52:51;;;;;;;6.18;4.88;;;;;;;;;;5054033;28;20599;-82
2021/05/31 04:55:18;;;;;;;6.50;4.53;;;;;;;;;;5053962;28;20195;-82
2021/05/31 04:57:44;;;;;;;4.97;4.53;;;;;;;;;;5053917;28;20168;-82
2021/05/31 05:00:10;;;;;;;5.25;4.53;;;;;;;;;;5053931;28;20172;-83
2021/05/31 05:02:35;;;;;;;5.13;4.60;;;;;;;;;;5053775;28;20195;-82
2021/05/31 05:05:00;;;;;;;5.00;4.60;;;;;;;;;;5053524;28;20176;-79
2021/05/31 05:07:26;;;;;;;5.47;4.43;;;;;;;;;;5054422;28;20172;-80
2021/05/31 05:09:51;;;;;;;5.32;4.78;;;;;;;;;;5054039;28;20176;-80
2021/05/31 05:12:16;;;;;;;6.55;4.85;;;;;;;;;;5053480;28;20297;-83
2021/05/31 05:14:43;;;;;;;5.22;4.72;;;;;;;;;;5054037;28;20168;-83
2021/05/31 05:17:08;;;;;;;4.80;4.50;;;;;;;;;;5053706;28;20313;-83
2021/05/31 05:19:34;;;;;;;5.13;4.72;;;;;;;;;;5053649;28;20670;-83
2021/05/31 05:21:59;;;;;;;5.10;4.60;;;;;;;;;;5053897;28;20172;-80
2021/05/31 05:24:25;;;;;;;5.25;4.70;;;;;;;;;;5053421;28;20346;-83
2021/05/31 05:26:50;;;;;;;5.03;4.63;;;;;;;;;;5054266;28;20258;-83
2021/05/31 05:29:15;;;;;;;5.32;4.82;;;;;;;;;;5053922;28;20525;-83
2021/05/31 05:31:41;;;;;;;6.00;4.93;;;;;;;;;;5054149;28;20171;-83
2021/05/31 05:34:06;;;;;;;4.85;4.45;;;;;;;;;;5053268;28;20174;-83
2021/05/31 05:39:28;;;;;;;4.72;4.32;;;;;;;;;;5057488;28;20199;-83
2021/05/31 05:44:48;;;;;;;5.28;4.40;;;;;;;;;;5057632;28;20163;-83
2021/05/31 05:49:48;;;;;;;5.57;4.03;;;;;;;;;;5057568;28;20163;-83
2021/05/31 05:52:13;;;;;;;5.50;4.35;;;;;;;;;;5057016;28;20254;-81
2021/05/31 05:54:39;;;;;;;5.72;4.07;;;;;;;;;;5056971;28;20171;-81
2021/05/31 05:57:04;;;;;;;5.22;4.28;;;;;;;;;;5057144;28;20178;-81
2021/05/31 05:59:30;;;;;;;4.25;3.95;;;;;;;;;;5057560;28;20625;-82
2021/05/31 06:01:55;;;;;;;5.10;4.35;;;;;;;;;;5057436;28;20257;-81
2021/05/31 06:04:20;;;;;;;4.80;4.40;;;;;;;;;;5056971;28;20195;-82
2021/05/31 06:06:46;;;;;;;5.15;4.50;;;;;;;;;;5057118;28;20614;-81
2021/05/31 06:09:12;;;;;;;4.90;4.05;;;;;;;;;;5057473;28;20174;-82
2021/05/31 06:11:41;;;;;;;4.40;3.80;;;;;;;;;;5057245;28;20206;-82
2021/05/31 06:14:09;;;;;;;6.38;4.50;;;;;;;;;;5056665;28;20171;-82
2021/05/31 06:16:34;;;;;;;4.88;4.50;;;;;;;;;;5056838;28;20167;-82
2021/05/31 06:18:59;;;;;;;4.93;4.35;;;;;;;;;;5056756;28;20333;-81
2021/05/31 06:21:24;;;;;;;4.82;4.03;;;;;;;;;;5057046;28;20206;-81
2021/05/31 06:23:50;;;;;;;3.97;3.58;;;;;;;;;;5056856;28;20250;-81
2021/05/31 06:26:15;;;;;;;4.38;4.05;;;;;;;;;;5056483;28;20521;-84
2021/05/31 06:28:41;;;;;;;4.70;4.13;;;;;;;;;;5056807;28;20618;-81
2021/05/31 06:31:06;;;;;;;4.68;4.00;;;;;;;;;;5056932;28;20171;-83
2021/05/31 06:33:31;;;;;;;3.95;3.65;;;;;;;;;;5056599;28;20167;-83
2021/05/31 06:35:58;;;;;;;4.03;3.72;;;;;;;;;;5056536;28;20172;-83
2021/05/31 06:38:24;;;;;;;3.92;3.63;;;;;;;;;;5056562;28;20219;-83
2021/05/31 06:40:49;;;;;;;4.15;3.85;;;;;;;;;;5056290;28;20586;-84
2021/05/31 06:43:14;;;;;;;7.90;3.97;;;;;;;;;;5056684;28;20518;-83
2021/05/31 06:45:40;;;;;;;4.03;3.72;;;;;;;;;;5056053;28;20172;-83
2021/05/31 06:48:06;;;;;;;4.40;3.80;;;;;;;;;;5056143;28;20175;-83
2021/05/31 06:50:33;;;;;;;3.60;3.30;;;;;;;;;;5055304;28;20634;-83
2021/05/31 06:52:59;;;;;;;4.40;3.40;;;;;;;;;;5056152;28;20212;-83
2021/05/31 06:55:24;;;;;;;3.75;3.45;;;;;;;;;;5056181;28;20213;-83
2021/05/31 06:57:51;;;;;;;3.50;3.15;;;;;;;;;;5056204;28;20167;-83
2021/05/31 07:00:17;;;;;;;5.35;3.60;;;;;;;;;;5055972;28;20195;-83
2021/05/31 07:02:43;;;;;;;4.05;3.40;;;;;;;;;;5056632;28;20190;-83
2021/05/31 07:05:09;;;;;;;3.70;3.50;;;;;;;;;;5055875;28;20606;-83
2021/05/31 07:07:35;;;;;;;3.83;3.45;;;;;;;;;;5055916;28;20164;-83
2021/05/31 07:10:00;;;;;;;5.72;4.15;;;;;;;;;;5055815;28;20648;-83
2021/05/31 07:12:26;;;;;;;5.13;3.85;;;;;;;;;;5056082;28;20167;-83
2021/05/31 07:14:52;;;;;;;3.85;3.55;;;;;;;;;;5055779;28;20633;-83
2021/05/31 07:17:18;;;;;;;3.53;3.22;;;;;;;;;;5055398;28;20172;-83
2021/05/31 07:19:44;;;;;;;8.82;3.50;;;;;;;;;;5055581;28;20195;-83
2021/05/31 07:22:12;;;;;;;4.10;3.72;;;;;;;;;;5055316;28;20207;-83
2021/05/31 07:24:37;;;;;;;3.83;3.53;;;;;;;;;;5055859;28;20164;-83
2021/05/31 07:27:03;;;;;;;3.75;3.55;;;;;;;;;;5055836;28;20259;-82
2021/05/31 07:29:28;;;;;;;4.00;3.40;;;;;;;;;;5055761;28;20305;-83
2021/05/31 07:31:53;;;;;;;6.47;3.58;;;;;;;;;;5055644;28;20633;-84
2021/05/31 07:34:19;;;;;;;3.72;3.17;;;;;;;;;;5055744;28;20572;-84
2021/05/31 07:36:44;;;;;;;3.72;3.20;;;;;;;;;;5054997;28;20713;-85
2021/05/31 07:39:10;;;;;;;4.75;3.40;;;;;;;;;;5054946;28;20203;-85
2021/05/31 07:41:36;;;;;;;3.50;3.20;;;;;;;;;;5054801;28;20643;-85
2021/05/31 07:44:01;;;;;;;5.82;3.90;;;;;;;;;;5055008;28;20237;-84
2021/05/31 07:46:26;;;;;;;4.47;3.70;;;;;;;;;;5054866;28;20234;-82
2021/05/31 07:48:53;;;;;;;3.90;3.60;;;;;;;;;;5053277;28;20178;-84
2021/05/31 07:51:19;;;;;;;3.42;3.05;;;;;;;;;;5052841;28;20677;-84
2021/05/31 07:53:46;;;;;;;4.10;3.35;;;;;;;;;;5053060;28;20164;-84
2021/05/31 07:56:12;;;;;;;7.63;3.13;;;;;;;;;;5053050;28;20171;-84
2021/05/31 07:58:38;;;;;;;3.83;3.33;;;;;;;;;;5052701;28;20250;-84
2021/05/31 08:01:03;;;;;;;4.57;3.50;;;;;;;;;;5052817;28;20578;-85
2021/05/31 08:03:30;;;;;;;6.28;3.65;;;;;;;;;;5052871;28;20168;-85
2021/05/31 08:05:55;;;;;;;4.75;3.53;;;;;;;;;;5052516;28;20183;-85
2021/05/31 08:08:20;;;;;;;3.47;3.20;;;;;;;;;;5053629;28;20168;-85
2021/05/31 08:10:45;;;;;;;5.38;3.85;;;;;;;;;;5053734;28;20183;-85
2021/05/31 08:13:11;;;;;;;4.15;3.35;;;;;;;;;;5054237;28;20164;-85
2021/05/31 08:15:36;;;;;;;3.53;3.22;;;;;;;;;;5054248;28;20168;-85
2021/05/31 08:18:01;;;;;;;3.75;3.28;;;;;;;;;;5053140;28;20198;-85
2021/05/31 08:20:27;;;;;;;6.68;4.10;;;;;;;;;;5046505;28;20211;-85
2021/05/31 08:22:52;;;;;;;5.97;3.90;;;;;;;;;;5049834;28;20180;-85
2021/05/31 08:25:17;;;;;;;5.47;4.20;;;;;;;;;;5036426;28;20176;-85
2021/05/31 08:27:43;;;;;;;5.05;3.53;;;;;;;;;;5037075;28;20249;-84
2021/05/31 08:30:09;;;;;;;5.57;3.40;;;;;;;;;;5054164;28;20588;-84
2021/05/31 08:32:34;;;;;;;4.97;3.90;;;;;;;;;;5054968;28;20213;-84
2021/05/31 08:35:00;;;;;;;5.97;3.43;;;;;;;;;;5054420;28;20530;-85
2021/05/31 08:37:25;;;;;;;3.20;2.87;;;;;;;;;;5042307;28;20251;-84
2021/05/31 08:39:53;;;;;;;3.97;3.07;;;;;;;;;;5039573;28;20257;-85
2021/05/31 08:42:19;;;;;;;6.70;3.00;;;;;;;;;;5053428;28;20182;-85
2021/05/31 08:44:44;;;;;;;2.90;2.70;;;;;;;;;;5052292;28;20262;-84
2021/05/31 08:47:10;;;;;;;3.80;2.80;;;;;;;;;;5052406;28;20223;-85
2021/05/31 08:49:35;;;;;;;3.10;2.80;;;;;;;;;;5053887;28;20516;-85
2021/05/31 08:52:01;;;;;;;2.90;2.70;;;;;;;;;;5053592;28;20180;-85
2021/05/31 08:54:26;;;;;;;3.00;2.73;;;;;;;;;;5053634;28;20641;-85
2021/05/31 08:56:51;;;;;;;4.43;3.20;;;;;;;;;;5052782;28;20175;-86
2021/05/31 08:59:17;;;;;;;5.37;3.67;;;;;;;;;;5054044;28;20265;-86
2021/05/31 09:01:42;;;;;;;3.23;3.03;;;;;;;;;;5051620;28;20641;-86
2021/05/31 09:04:11;;;;;;;5.27;3.03;;;;;;;;;;5053550;28;20262;-86
2021/05/31 09:06:37;;;;;;;3.17;2.97;;;;;;;;;;5053785;28;20233;-86
2021/05/31 09:09:03;;;;;;;2.97;2.87;;;;;;;;;;5047053;28;20189;-87
2021/05/31 09:11:29;;;;;;;3.30;2.80;;;;;;;;;;5039326;28;20311;-88
2021/05/31 09:13:55;;;;;;;3.87;3.00;;;;;;;;;;5034006;28;20183;-87
2021/05/31 09:16:22;;;;;;;2.90;2.70;;;;;;;;;;5047286;28;20221;-87
2021/05/31 09:18:50;;;;;;;4.80;3.00;;;;;;;;;;5048226;28;20813;-87
2021/05/31 09:21:17;;;;;;;4.50;2.73;;;;;;;;;;5033460;28;20523;-86
2021/05/31 09:23:44;;;;;;;3.50;3.20;;;;;;;;;;5033612;28;20230;-86
2021/05/31 09:26:09;;;;;;;3.30;2.77;;;;;;;;;;5036518;28;20578;-87
2021/05/31 09:28:35;;;;;;;5.23;3.30;;;;;;;;;;5040778;28;20216;-87
2021/05/31 09:31:11;;;;;;;4.47;3.00;;;;;;;;;;5030626;28;20574;-86
2021/05/31 09:33:37;;;;;;;3.20;2.90;;;;;;;;;;5039181;28;20160;-87
2021/05/31 09:36:06;;;;;;;3.03;2.83;;;;;;;;;;5050126;28;20503;-87
2021/05/31 09:38:32;;;;;;;6.20;3.00;;;;;;;;;;5030461;28;20232;-87
2021/05/31 09:40:57;;;;;;;3.40;2.90;;;;;;;;;;5031794;28;20207;-86
2021/05/31 09:43:26;;;;;;;2.93;2.60;;;;;;;;;;5031859;28;20176;-87
2021/05/31 09:45:51;;;;;;;3.93;3.10;;;;;;;;;;5033563;28;20230;-86
2021/05/31 09:48:20;;;;;;;3.53;2.83;;;;;;;;;;5051757;28;20627;-87
2021/05/31 09:50:58;;;;;;;4.53;3.50;;;;;;;;;;5053371;28;20642;-88
2021/05/31 09:53:23;;;;;;;3.43;3.07;;;;;;;;;;5053458;28;20217;-86
2021/05/31 09:55:49;;;;;;;4.53;3.07;;;;;;;;;;5052991;28;20251;-86
2021/05/31 09:58:15;;;;;;;2.70;2.50;;;;;;;;;;5051252;28;20572;-87
2021/05/31 10:00:45;;;;;;;3.27;2.80;;;;;;;;;;5051304;28;20180;-86
2021/05/31 10:03:42;;;;;;;3.27;2.80;;;;;;;;;;5051808;28;20659;-87
2021/05/31 10:06:05;;;;;;;3.47;2.77;;;;;;;;;;5050935;28;20627;-86
2021/05/31 10:11:02;;;;;;;3.60;3.10;;;;;;;;;;5051194;28;20615;-88
2021/05/31 10:13:28;;;;;;;6.93;5.40;;;;;;;;;;5051341;28;20230;-87
2021/05/31 10:15:54;;;;;;;3.80;3.50;;;;;;;;;;5051215;28;20176;-87
2021/05/31 10:18:19;;;;;;;3.00;2.80;;;;;;;;;;5049952;28;20224;-87
2021/05/31 10:20:46;;;;;;;6.67;2.90;;;;;;;;;;5050912;28;20634;-87
2021/05/31 10:23:14;;;;;;;4.17;2.80;;;;;;;;;;5049507;28;20187;-87
2021/05/31 10:25:43;;;;;;;3.73;3.43;;;;;;;;;;5055045;28;20282;-87
2021/05/31 10:28:08;;;;;;;2.70;2.50;;;;;;;;;;5057026;28;20180;-87
2021/05/31 10:30:44;;;;;;;3.30;2.97;;;;;;;;;;5056457;28;20521;-86
2021/05/31 10:33:13;;;;;;;4.37;2.87;;;;;;;;;;5055831;28;20243;-86
2021/05/31 10:35:38;;;;;;;5.37;2.80;;;;;;;;;;5054517;28;20791;-86
2021/05/31 10:38:09;;;;;;;2.67;2.47;;;;;;;;;;5054519;28;20638;-87
2021/05/31 10:40:36;;;;;;;4.43;2.90;;;;;;;;;;5054382;28;20176;-86
2021/05/31 10:43:06;;;;;;;2.60;2.40;;;;;;;;;;5053062;28;20171;-86
2021/05/31 10:45:31;;;;;;;2.60;2.43;;;;;;;;;;5054586;28;20222;-88
2021/05/31 10:48:13;;;;;;;2.30;2.20;;;;;;;;;;5054436;28;20228;-86
2021/05/31 10:50:58;;;;;;;3.10;2.40;;;;;;;;;;5054846;28;20182;-87
2021/05/31 10:55:50;;;;;;;9.13;2.70;;;;;;;;;;5055038;28;20249;-88
2021/05/31 10:58:16;;;;;;;2.67;2.47;;;;;;;;;;5056070;28;20564;-87
2021/05/31 11:00:41;;;;;;;3.53;2.50;;;;;;;;;;5056095;28;20168;-88
2021/05/31 11:03:09;;;;;;;2.80;2.63;;;;;;;;;;5056255;28;20172;-87
2021/05/31 11:05:35;;;;;;;3.90;2.83;;;;;;;;;;5054727;28;20206;-87
2021/05/31 11:08:01;;;;;;;3.17;2.90;;;;;;;;;;5054726;28;20198;-86
2021/05/31 11:10:31;;;;;;;3.23;2.60;;;;;;;;;;5055556;28;20618;-86
2021/05/31 11:13:07;;;;;;;3.20;2.90;;;;;;;;;;5054498;28;20180;-87
2021/05/31 11:15:36;;;;;;;3.00;2.70;;;;;;;;;;5054357;28;20168;-86
2021/05/31 11:18:01;;;;;;;4.80;2.83;;;;;;;;;;5053414;28;20176;-86
2021/05/31 11:20:29;;;;;;;4.10;2.80;;;;;;;;;;5053117;28;20210;-87
2021/05/31 11:23:02;;;;;;;4.83;2.80;;;;;;;;;;5052005;28;20179;-88
2021/05/31 11:25:28;;;;;;;4.57;3.07;;;;;;;;;;5053082;28;20176;-86
2021/05/31 11:27:58;;;;;;;5.70;2.80;;;;;;;;;;5053184;28;20613;-87
2021/05/31 11:30:26;;;;;;;6.23;2.97;;;;;;;;;;5053902;28;20211;-86
2021/05/31 11:32:52;;;;;;;2.70;2.50;;;;;;;;;;5053839;28;20207;-87
2021/05/31 11:35:18;;;;;;;4.67;2.90;;;;;;;;;;5053585;28;20187;-86
2021/05/31 11:37:44;;;;;;;3.47;2.87;;;;;;;;;;5055226;28;20202;-88
2021/05/31 11:40:17;;;;;;;5.27;3.57;;;;;;;;;;5055127;28;20271;-87
2021/05/31 11:42:44;;;;;;;3.03;2.80;;;;;;;;;;5055218;28;20214;-88
2021/05/31 11:45:10;;;;;;;4.13;3.00;;;;;;;;;;5055620;28;20175;-87
2021/05/31 11:47:35;;;;;;;4.00;2.77;;;;;;;;;;5054829;28;20567;-88
2021/05/31 11:50:01;;;;;;;2.57;2.37;;;;;;;;;;5054900;28;20179;-88
2021/05/31 11:52:27;;;;;;;3.53;2.63;;;;;;;;;;5054759;28;20171;-88
2021/05/31 11:54:53;;;;;;;4.00;2.87;;;;;;;;;;5054776;28;20176;-88
2021/05/31 11:57:23;;;;;;;3.97;2.83;;;;;;;;;;5054020;28;20179;-86
2021/05/31 11:59:50;;;;;;;3.67;2.67;;;;;;;;;;5054891;28;20290;-87
2021/05/31 12:02:17;;;;;;;3.40;2.63;;;;;;;;;;5054826;28;20176;-87
2021/05/31 12:04:46;;;;;;;2.90;2.70;;;;;;;;;;5054757;28;20522;-86
2021/05/31 12:07:17;;;;;;;3.83;2.73;;;;;;;;;;5054673;28;20245;-89
2021/05/31 12:09:43;;;;;;;5.07;2.70;;;;;;;;;;5054816;28;20615;-88
2021/05/31 12:12:09;;;;;;;4.60;2.80;;;;;;;;;;5054951;28;20200;-88
2021/05/31 12:15:00;;;;;;;3.27;2.90;;;;;;;;;;5054964;28;20167;-87
2021/05/31 12:17:27;;;;;;;2.57;2.43;;;;;;;;;;5054116;28;20222;-86
2021/05/31 12:19:53;;;;;;;3.83;2.73;;;;;;;;;;5053916;28;20200;-86
2021/05/31 12:22:19;;;;;;;4.97;3.40;;;;;;;;;;5066087;28;20243;-84
2021/05/31 12:24:46;;;;;;;3.73;2.60;;;;;;;;;;5064294;28;20180;-85
2021/05/31 12:27:13;;;;;;;3.07;2.80;;;;;;;;;;5054118;28;20171;-86
2021/05/31 12:29:39;;;;;;;5.83;3.07;;;;;;;;;;5054556;28;20178;-87
2021/05/31 12:32:05;;;;;;;3.00;2.80;;;;;;;;;;5054070;28;20224;-87
2021/05/31 12:34:31;;;;;;;2.77;2.60;;;;;;;;;;5054435;28;20179;-86
2021/05/31 12:36:56;;;;;;;3.87;2.90;;;;;;;;;;5052788;28;20199;-87
2021/05/31 12:39:22;;;;;;;2.80;2.57;;;;;;;;;;5054697;28;20199;-86
2021/05/31 12:41:48;;;;;;;3.30;2.63;;;;;;;;;;5052901;28;20175;-87
2021/05/31 12:44:13;;;;;;;3.13;2.67;;;;;;;;;;5054082;28;20250;-87
2021/05/31 12:46:39;;;;;;;2.63;2.43;;;;;;;;;;5053607;28;20322;-87
2021/05/31 12:49:05;;;;;;;3.43;2.73;;;;;;;;;;5054285;28;20258;-87
2021/05/31 12:51:30;;;;;;;3.77;2.87;;;;;;;;;;5053741;28;20650;-87
2021/05/31 12:53:59;;;;;;;2.93;2.70;;;;;;;;;;5053207;28;20693;-86
2021/05/31 12:56:28;;;;;;;3.10;2.80;;;;;;;;;;5053180;28;20255;-86
2021/05/31 12:59:00;;;;;;;3.37;3.07;;;;;;;;;;5050436;28;20214;-84
2021/05/31 13:01:29;;;;;;;4.40;2.80;;;;;;;;;;5051970;28;20184;-86
2021/05/31 13:03:55;;;;;;;3.10;2.77;;;;;;;;;;5051067;28;20207;-86
2021/05/31 13:06:29;;;;;;;3.10;2.80;;;;;;;;;;5054066;28;20178;-86
2021/05/31 13:08:56;;;;;;;3.37;2.70;;;;;;;;;;5053621;28;20254;-85
2021/05/31 13:11:21;;;;;;;3.80;2.40;;;;;;;;;;5051997;28;20263;-85
2021/05/31 13:13:47;;;;;;;3.10;2.50;;;;;;;;;;5052234;28;20259;-86
2021/05/31 13:16:12;;;;;;;3.20;2.80;;;;;;;;;;5051948;28;20222;-85
2021/05/31 13:18:49;;;;;;;3.37;2.83;;;;;;;;;;5052000;28;20241;-86
2021/05/31 13:21:19;;;;;;;3.47;2.80;;;;;;;;;;5052912;28;20224;-86
2021/05/31 13:23:46;;;;;;;4.00;3.00;;;;;;;;;;5052974;28;20187;-85
2021/05/31 13:26:25;;;;;;;4.00;3.40;;;;;;;;;;5051900;28;20369;-85
2021/05/31 13:29:02;;;;;;;5.07;2.97;;;;;;;;;;5051045;28;20210;-86
2021/05/31 13:31:28;;;;;;;3.30;3.00;;;;;;;;;;5054334;28;20160;-86
2021/05/31 13:33:55;;;;;;;6.00;3.17;;;;;;;;;;5053410;28;20175;-85
2021/05/31 13:36:27;;;;;;;6.17;3.07;;;;;;;;;;5052646;28;20192;-87
2021/05/31 13:39:05;;;;;;;4.30;3.10;;;;;;;;;;5053367;28;20285;-86
2021/05/31 13:41:38;;;;;;;5.70;3.10;;;;;;;;;;5053726;28;20172;-86
2021/05/31 13:44:13;;;;;;;3.77;2.90;;;;;;;;;;5053409;28;20615;-86
2021/05/31 13:46:40;;;;;;;3.00;2.80;;;;;;;;;;5053596;28;20739;-87
2021/05/31 13:49:11;;;;;;;3.80;2.80;;;;;;;;;;5053129;28;20446;-88
2021/05/31 13:51:40;;;;;;;3.57;2.87;;;;;;;;;;5053353;28;20164;-87
2021/05/31 13:54:05;;;;;;;4.10;3.10;;;;;;;;;;5053105;28;20163;-86
2021/05/31 13:56:36;;;;;;;3.57;3.03;;;;;;;;;;5053795;28;20668;-87
2021/05/31 13:59:02;;;;;;;3.50;3.20;;;;;;;;;;5056119;28;20245;-87
2021/05/31 14:01:28;;;;;;;4.03;3.73;;;;;;;;;;5057244;28;20176;-87
2021/05/31 14:03:56;;;;;;;3.70;3.10;;;;;;;;;;5057314;28;20464;-88
2021/05/31 14:06:21;;;;;;;4.07;3.03;;;;;;;;;;5056901;28;20178;-87
2021/05/31 14:08:48;;;;;;;3.30;3.10;;;;;;;;;;5056909;28;20174;-88
2021/05/31 14:11:13;;;;;;;4.07;3.57;;;;;;;;;;5057293;28;20243;-88
2021/05/31 14:13:38;;;;;;;3.73;3.43;;;;;;;;;;5057010;28;20168;-87
2021/05/31 14:16:04;;;;;;;4.40;3.10;;;;;;;;;;5056584;28;20175;-86
2021/05/31 14:18:32;;;;;;;4.00;3.30;;;;;;;;;;5056895;28;20160;-88
2021/05/31 14:20:57;;;;;;;3.37;3.10;;;;;;;;;;5057124;28;20179;-87
2021/05/31 14:23:25;;;;;;;3.57;3.23;;;;;;;;;;5056923;28;20175;-87
2021/05/31 14:25:50;;;;;;;3.50;3.20;;;;;;;;;;5056657;28;20373;-85
2021/05/31 14:28:16;;;;;;;3.87;2.93;;;;;;;;;;5056616;28;20207;-88
2021/05/31 14:30:41;;;;;;;3.73;2.90;;;;;;;;;;5057281;28;20168;-89
2021/05/31 14:33:06;;;;;;;4.17;3.07;;;;;;;;;;5056596;28;20176;-89
2021/05/31 14:35:32;;;;;;;3.17;2.83;;;;;;;;;;5056923;28;20172;-90
2021/05/31 14:37:58;;;;;;;4.30;2.93;;;;;;;;;;5055436;28;20262;-91
2021/05/31 14:40:27;;;;;;;4.20;2.90;;;;;;;;;;5056916;28;20278;-88
2021/05/31 14:42:54;;;;;;;5.13;3.33;;;;;;;;;;5055906;28;20627;-88
2021/05/31 14:45:19;;;;;;;3.30;3.10;;;;;;;;;;5056493;28;20281;-87
2021/05/31 14:47:46;;;;;;;5.40;3.13;;;;;;;;;;5056071;28;20259;-89
2021/05/31 14:50:12;;;;;;;3.20;2.90;;;;;;;;;;5054819;28;20187;-87
2021/05/31 14:52:37;;;;;;;3.63;3.30;;;;;;;;;;5055884;28;20179;-88
2021/05/31 14:55:05;;;;;;;4.97;3.17;;;;;;;;;;5056061;28;20204;-87
2021/05/31 14:57:32;;;;;;;4.20;3.10;;;;;;;;;;5049262;28;20173;-87
2021/05/31 14:59:57;;;;;;;3.50;3.20;;;;;;;;;;5039602;28;20219;-87